sensor_id;sensor_type;location;lat;lon;timestamp;temperature;humidity
7290;DHT22;63176;52.678;13.250;2023-08-12T00:00:19;17.30;99.90
7290;DHT22;63176;52.678;13.250;2023-08-12T00:02:45;17.40;99.90
7290;DHT22;63176;52.678;13.250;2023-08-12T00:05:11;17.40;99.90
7290;DHT22;63176;52.678;13.250;2023-08-12T00:07:38;17.40;99.90
7290;DHT22;63176;52.678;13.250;2023-08-12T00:10:07;17.40;99.90
7290;DHT22;63176;52.678;13.250;2023-08-12T00:12:34;17.30;99.90
7290;DHT22;63176;52.678;13.250;2023-08-12T00:15:00;17.40;99.90
7290;DHT22;63176;52.678;13.250;2023-08-12T00:17:26;17.30;99.90
7290;DHT22;63176;52.678;13.250;2023-08-12T00:19:51;17.40;99.90
7290;DHT22;63176;52.678;13.250;2023-08-12T00:22:17;17.30;99.90
7290;DHT22;63176;52.678;13.250;2023-08-12T00:24:43;17.30;99.90
7290;DHT22;63176;52.678;13.250;2023-08-12T00:27:10;17.40;99.90
7290;DHT22;63176;52.678;13.250;2023-08-12T00:29:35;17.40;99.90
7290;DHT22;63176;52.678;13.250;2023-08-12T00:32:01;17.40;99.90
7290;DHT22;63176;52.678;13.250;2023-08-12T00:34:27;17.40;99.90
7290;DHT22;63176;52.678;13.250;2023-08-12T00:36:53;17.50;99.90
7290;DHT22;63176;52.678;13.250;2023-08-12T00:39:19;17.50;99.90
7290;DHT22;63176;52.678;13.250;2023-08-12T00:41:44;17.50;99.90
7290;DHT22;63176;52.678;13.250;2023-08-12T00:44:10;17.50;99.90
7290;DHT22;63176;52.678;13.250;2023-08-12T00:46:40;17.60;99.90
7290;DHT22;63176;52.678;13.250;2023-08-12T00:49:06;17.60;99.90
7290;DHT22;63176;52.678;13.250;2023-08-12T00:51:32;17.60;99.90
7290;DHT22;63176;52.678;13.250;2023-08-12T00:53:59;17.60;99.90
7290;DHT22;63176;52.678;13.250;2023-08-12T00:56:26;17.60;99.90
7290;DHT22;63176;52.678;13.250;2023-08-12T00:58:53;17.60;99.90
7290;DHT22;63176;52.678;13.250;2023-08-12T01:01:19;17.60;99.90
7290;DHT22;63176;52.678;13.250;2023-08-12T01:03:45;17.60;99.90
7290;DHT22;63176;52.678;13.250;2023-08-12T01:06:12;17.60;99.90
7290;DHT22;63176;52.678;13.250;2023-08-12T01:08:38;17.60;99.90
7290;DHT22;63176;52.678;13.250;2023-08-12T01:14:27;17.50;99.90
7290;DHT22;63176;52.678;13.250;2023-08-12T01:16:58;17.40;99.90
7290;DHT22;63176;52.678;13.250;2023-08-12T01:21:55;17.40;99.90
7290;DHT22;63176;52.678;13.250;2023-08-12T01:24:24;17.50;99.90
7290;DHT22;63176;52.678;13.250;2023-08-12T01:26:50;17.40;99.90
7290;DHT22;63176;52.678;13.250;2023-08-12T01:29:16;17.40;99.90
7290;DHT22;63176;52.678;13.250;2023-08-12T01:31:48;17.40;99.90
7290;DHT22;63176;52.678;13.250;2023-08-12T01:37:04;17.40;99.90
7290;DHT22;63176;52.678;13.250;2023-08-12T01:39:32;17.30;99.90
7290;DHT22;63176;52.678;13.250;2023-08-12T01:41:59;17.30;99.90
7290;DHT22;63176;52.678;13.250;2023-08-12T01:44:25;17.30;99.90
7290;DHT22;63176;52.678;13.250;2023-08-12T01:46:51;17.30;99.90
7290;DHT22;63176;52.678;13.250;2023-08-12T01:49:17;17.30;99.90
7290;DHT22;63176;52.678;13.250;2023-08-12T01:51:43;17.30;99.90
7290;DHT22;63176;52.678;13.250;2023-08-12T01:54:09;17.20;99.90
7290;DHT22;63176;52.678;13.250;2023-08-12T01:56:34;17.20;99.90
7290;DHT22;63176;52.678;13.250;2023-08-12T01:59:00;17.20;99.90
7290;DHT22;63176;52.678;13.250;2023-08-12T02:01:26;17.20;99.90
7290;DHT22;63176;52.678;13.250;2023-08-12T02:03:51;17.30;99.90
7290;DHT22;63176;52.678;13.250;2023-08-12T02:06:17;17.30;99.90
7290;DHT22;63176;52.678;13.250;2023-08-12T02:08:43;17.30;99.90
7290;DHT22;63176;52.678;13.250;2023-08-12T02:11:09;17.30;99.90
7290;DHT22;63176;52.678;13.250;2023-08-12T02:13:34;17.30;99.90
7290;DHT22;63176;52.678;13.250;2023-08-12T02:16:00;17.30;99.90
7290;DHT22;63176;52.678;13.250;2023-08-12T02:18:25;17.30;99.90
7290;DHT22;63176;52.678;13.250;2023-08-12T02:20:51;17.40;99.90
7290;DHT22;63176;52.678;13.250;2023-08-12T02:23:17;17.40;99.90
7290;DHT22;63176;52.678;13.250;2023-08-12T02:25:42;17.50;99.90
7290;DHT22;63176;52.678;13.250;2023-08-12T02:28:08;17.50;99.90
7290;DHT22;63176;52.678;13.250;2023-08-12T02:30:34;17.50;99.90
7290;DHT22;63176;52.678;13.250;2023-08-12T02:32:59;17.50;99.90
7290;DHT22;63176;52.678;13.250;2023-08-12T02:35:25;17.50;99.90
7290;DHT22;63176;52.678;13.250;2023-08-12T02:37:51;17.50;99.90
7290;DHT22;63176;52.678;13.250;2023-08-12T02:40:16;17.50;99.90
7290;DHT22;63176;52.678;13.250;2023-08-12T02:42:42;17.60;99.90
7290;DHT22;63176;52.678;13.250;2023-08-12T02:45:08;17.60;99.90
7290;DHT22;63176;52.678;13.250;2023-08-12T02:47:34;17.60;99.90
7290;DHT22;63176;52.678;13.250;2023-08-12T02:49:59;17.60;99.90
7290;DHT22;63176;52.678;13.250;2023-08-12T02:52:25;17.60;99.90
7290;DHT22;63176;52.678;13.250;2023-08-12T02:54:51;17.60;99.90
7290;DHT22;63176;52.678;13.250;2023-08-12T02:57:16;17.70;99.90
7290;DHT22;63176;52.678;13.250;2023-08-12T02:59:42;17.60;99.90
7290;DHT22;63176;52.678;13.250;2023-08-12T03:02:08;17.60;99.90
7290;DHT22;63176;52.678;13.250;2023-08-12T03:04:33;17.60;99.90
7290;DHT22;63176;52.678;13.250;2023-08-12T03:06:59;17.60;99.90
7290;DHT22;63176;52.678;13.250;2023-08-12T03:09:25;17.50;99.90
7290;DHT22;63176;52.678;13.250;2023-08-12T03:11:50;17.50;99.90
7290;DHT22;63176;52.678;13.250;2023-08-12T03:14:16;17.50;99.90
7290;DHT22;63176;52.678;13.250;2023-08-12T03:16:42;17.40;99.90
7290;DHT22;63176;52.678;13.250;2023-08-12T03:19:07;17.40;99.90
7290;DHT22;63176;52.678;13.250;2023-08-12T03:21:33;17.40;99.90
7290;DHT22;63176;52.678;13.250;2023-08-12T03:24:00;17.40;99.90
7290;DHT22;63176;52.678;13.250;2023-08-12T03:26:25;17.40;99.90
7290;DHT22;63176;52.678;13.250;2023-08-12T03:28:51;17.40;99.90
7290;DHT22;63176;52.678;13.250;2023-08-12T03:31:17;17.40;99.90
7290;DHT22;63176;52.678;13.250;2023-08-12T03:33:42;17.40;99.90
7290;DHT22;63176;52.678;13.250;2023-08-12T03:36:09;17.50;99.90
7290;DHT22;63176;52.678;13.250;2023-08-12T03:38:34;17.50;99.90
7290;DHT22;63176;52.678;13.250;2023-08-12T03:41:02;17.50;99.90
7290;DHT22;63176;52.678;13.250;2023-08-12T03:43:28;17.50;99.90
7290;DHT22;63176;52.678;13.250;2023-08-12T03:45:53;17.50;99.90
7290;DHT22;63176;52.678;13.250;2023-08-12T03:48:19;17.50;99.90
7290;DHT22;63176;52.678;13.250;2023-08-12T03:50:45;17.40;99.90
7290;DHT22;63176;52.678;13.250;2023-08-12T03:53:12;17.40;99.90
7290;DHT22;63176;52.678;13.250;2023-08-12T03:55:38;17.40;99.90
7290;DHT22;63176;52.678;13.250;2023-08-12T03:58:04;17.40;99.90
7290;DHT22;63176;52.678;13.250;2023-08-12T04:00:30;17.40;99.90
7290;DHT22;63176;52.678;13.250;2023-08-12T04:02:56;17.40;99.90
7290;DHT22;63176;52.678;13.250;2023-08-12T04:05:22;17.40;99.90
7290;DHT22;63176;52.678;13.250;2023-08-12T04:07:47;17.40;99.90
7290;DHT22;63176;52.678;13.250;2023-08-12T04:10:13;17.40;99.90
7290;DHT22;63176;52.678;13.250;2023-08-12T04:12:40;17.40;99.90
7290;DHT22;63176;52.678;13.250;2023-08-12T04:15:07;17.40;99.90
7290;DHT22;63176;52.678;13.250;2023-08-12T04:17:33;17.40;99.90
7290;DHT22;63176;52.678;13.250;2023-08-12T04:19:59;17.50;99.90
7290;DHT22;63176;52.678;13.250;2023-08-12T04:22:25;17.50;99.90
7290;DHT22;63176;52.678;13.250;2023-08-12T04:24:51;17.50;99.90
7290;DHT22;63176;52.678;13.250;2023-08-12T04:27:17;17.50;99.90
7290;DHT22;63176;52.678;13.250;2023-08-12T04:29:43;17.60;99.90
7290;DHT22;63176;52.678;13.250;2023-08-12T04:32:08;17.60;99.90
7290;DHT22;63176;52.678;13.250;2023-08-12T04:34:34;17.60;99.90
7290;DHT22;63176;52.678;13.250;2023-08-12T04:37:00;17.70;99.90
7290;DHT22;63176;52.678;13.250;2023-08-12T04:39:25;17.70;99.90
7290;DHT22;63176;52.678;13.250;2023-08-12T04:41:51;17.70;99.90
7290;DHT22;63176;52.678;13.250;2023-08-12T04:44:17;17.70;99.90
7290;DHT22;63176;52.678;13.250;2023-08-12T04:46:43;17.70;99.90
7290;DHT22;63176;52.678;13.250;2023-08-12T04:49:08;17.80;99.90
7290;DHT22;63176;52.678;13.250;2023-08-12T04:51:34;17.90;99.90
7290;DHT22;63176;52.678;13.250;2023-08-12T04:54:00;17.90;99.90
7290;DHT22;63176;52.678;13.250;2023-08-12T04:56:27;18.00;99.90
7290;DHT22;63176;52.678;13.250;2023-08-12T04:58:56;18.10;99.90
7290;DHT22;63176;52.678;13.250;2023-08-12T05:01:21;18.20;99.90
7290;DHT22;63176;52.678;13.250;2023-08-12T05:03:47;18.30;99.90
7290;DHT22;63176;52.678;13.250;2023-08-12T05:06:13;18.40;99.90
7290;DHT22;63176;52.678;13.250;2023-08-12T05:08:38;18.50;99.90
7290;DHT22;63176;52.678;13.250;2023-08-12T05:11:04;18.60;99.90
7290;DHT22;63176;52.678;13.250;2023-08-12T05:13:30;18.60;99.90
7290;DHT22;63176;52.678;13.250;2023-08-12T05:15:56;18.60;99.90
7290;DHT22;63176;52.678;13.250;2023-08-12T05:18:22;18.60;99.90
7290;DHT22;63176;52.678;13.250;2023-08-12T05:20:52;18.70;99.90
7290;DHT22;63176;52.678;13.250;2023-08-12T05:23:19;18.80;99.90
7290;DHT22;63176;52.678;13.250;2023-08-12T05:25:45;18.90;99.90
7290;DHT22;63176;52.678;13.250;2023-08-12T05:28:11;19.00;99.90
7290;DHT22;63176;52.678;13.250;2023-08-12T05:30:36;19.10;99.90
7290;DHT22;63176;52.678;13.250;2023-08-12T05:33:03;19.10;99.90
7290;DHT22;63176;52.678;13.250;2023-08-12T05:35:33;19.20;99.90
7290;DHT22;63176;52.678;13.250;2023-08-12T05:37:58;19.30;99.90
7290;DHT22;63176;52.678;13.250;2023-08-12T05:40:24;19.30;99.90
7290;DHT22;63176;52.678;13.250;2023-08-12T05:42:50;19.30;99.90
7290;DHT22;63176;52.678;13.250;2023-08-12T05:45:15;19.40;99.90
7290;DHT22;63176;52.678;13.250;2023-08-12T05:47:41;19.30;99.90
7290;DHT22;63176;52.678;13.250;2023-08-12T05:50:07;19.30;99.90
7290;DHT22;63176;52.678;13.250;2023-08-12T05:52:33;19.30;99.90
7290;DHT22;63176;52.678;13.250;2023-08-12T05:54:58;19.30;99.90
7290;DHT22;63176;52.678;13.250;2023-08-12T05:57:24;19.40;99.90
7290;DHT22;63176;52.678;13.250;2023-08-12T05:59:49;19.40;99.90
7290;DHT22;63176;52.678;13.250;2023-08-12T06:02:15;19.40;99.90
7290;DHT22;63176;52.678;13.250;2023-08-12T06:04:44;19.50;99.90
7290;DHT22;63176;52.678;13.250;2023-08-12T06:07:10;19.50;99.90
7290;DHT22;63176;52.678;13.250;2023-08-12T06:09:41;19.60;99.90
7290;DHT22;63176;52.678;13.250;2023-08-12T06:12:07;19.70;99.90
7290;DHT22;63176;52.678;13.250;2023-08-12T06:14:34;19.80;99.90
7290;DHT22;63176;52.678;13.250;2023-08-12T06:17:00;19.80;99.90
7290;DHT22;63176;52.678;13.250;2023-08-12T06:19:29;19.90;99.90
7290;DHT22;63176;52.678;13.250;2023-08-12T06:21:55;19.90;99.90
7290;DHT22;63176;52.678;13.250;2023-08-12T06:24:20;20.00;99.90
7290;DHT22;63176;52.678;13.250;2023-08-12T06:26:46;20.10;99.90
7290;DHT22;63176;52.678;13.250;2023-08-12T06:29:12;20.20;99.90
7290;DHT22;63176;52.678;13.250;2023-08-12T06:31:37;20.20;99.90
7290;DHT22;63176;52.678;13.250;2023-08-12T06:34:03;20.20;99.90
7290;DHT22;63176;52.678;13.250;2023-08-12T06:36:29;20.20;99.90
7290;DHT22;63176;52.678;13.250;2023-08-12T06:38:54;20.30;99.90
7290;DHT22;63176;52.678;13.250;2023-08-12T06:41:20;20.30;99.90
7290;DHT22;63176;52.678;13.250;2023-08-12T06:43:45;20.30;99.90
7290;DHT22;63176;52.678;13.250;2023-08-12T06:46:11;20.40;99.90
7290;DHT22;63176;52.678;13.250;2023-08-12T06:48:37;20.50;99.90
7290;DHT22;63176;52.678;13.250;2023-08-12T06:51:03;20.60;99.90
7290;DHT22;63176;52.678;13.250;2023-08-12T06:53:36;20.70;99.90
7290;DHT22;63176;52.678;13.250;2023-08-12T06:56:02;20.70;99.90
7290;DHT22;63176;52.678;13.250;2023-08-12T06:58:28;20.80;99.90
7290;DHT22;63176;52.678;13.250;2023-08-12T07:00:53;20.90;99.90
7290;DHT22;63176;52.678;13.250;2023-08-12T07:03:19;21.00;99.90
7290;DHT22;63176;52.678;13.250;2023-08-12T07:05:45;21.20;99.90
7290;DHT22;63176;52.678;13.250;2023-08-12T07:08:10;21.20;99.90
7290;DHT22;63176;52.678;13.250;2023-08-12T07:10:40;21.30;99.90
7290;DHT22;63176;52.678;13.250;2023-08-12T07:13:06;21.40;99.90
7290;DHT22;63176;52.678;13.250;2023-08-12T07:15:32;21.40;99.90
7290;DHT22;63176;52.678;13.250;2023-08-12T07:17:57;21.50;99.90
7290;DHT22;63176;52.678;13.250;2023-08-12T07:20:24;21.50;99.90
7290;DHT22;63176;52.678;13.250;2023-08-12T07:22:50;21.60;99.90
7290;DHT22;63176;52.678;13.250;2023-08-12T07:25:16;21.60;99.90
7290;DHT22;63176;52.678;13.250;2023-08-12T07:27:41;21.80;99.90
7290;DHT22;63176;52.678;13.250;2023-08-12T07:30:08;21.80;99.90
7290;DHT22;63176;52.678;13.250;2023-08-12T07:32:35;21.90;99.90
7290;DHT22;63176;52.678;13.250;2023-08-12T07:35:01;22.00;99.90
7290;DHT22;63176;52.678;13.250;2023-08-12T07:37:28;22.10;99.90
7290;DHT22;63176;52.678;13.250;2023-08-12T07:39:54;22.10;99.90
7290;DHT22;63176;52.678;13.250;2023-08-12T07:42:20;22.20;99.90
7290;DHT22;63176;52.678;13.250;2023-08-12T07:44:45;22.20;99.90
7290;DHT22;63176;52.678;13.250;2023-08-12T07:47:11;22.20;99.90
7290;DHT22;63176;52.678;13.250;2023-08-12T07:49:37;22.20;99.90
7290;DHT22;63176;52.678;13.250;2023-08-12T07:52:03;22.20;99.90
7290;DHT22;63176;52.678;13.250;2023-08-12T07:54:29;22.10;99.90
7290;DHT22;63176;52.678;13.250;2023-08-12T07:56:55;22.10;99.90
7290;DHT22;63176;52.678;13.250;2023-08-12T07:59:21;22.00;99.90
7290;DHT22;63176;52.678;13.250;2023-08-12T08:01:47;22.00;99.90
7290;DHT22;63176;52.678;13.250;2023-08-12T08:04:12;21.90;99.90
7290;DHT22;63176;52.678;13.250;2023-08-12T08:06:38;21.90;99.90
7290;DHT22;63176;52.678;13.250;2023-08-12T08:09:04;21.80;99.90
7290;DHT22;63176;52.678;13.250;2023-08-12T08:11:30;21.70;99.90
7290;DHT22;63176;52.678;13.250;2023-08-12T08:13:58;21.70;99.90
7290;DHT22;63176;52.678;13.250;2023-08-12T08:16:24;21.60;99.90
7290;DHT22;63176;52.678;13.250;2023-08-12T08:18:49;21.50;99.90
7290;DHT22;63176;52.678;13.250;2023-08-12T08:21:16;21.50;99.90
7290;DHT22;63176;52.678;13.250;2023-08-12T08:23:42;21.40;99.90
7290;DHT22;63176;52.678;13.250;2023-08-12T08:26:09;21.40;99.90
7290;DHT22;63176;52.678;13.250;2023-08-12T08:28:35;21.40;99.90
7290;DHT22;63176;52.678;13.250;2023-08-12T08:31:01;21.30;99.90
7290;DHT22;63176;52.678;13.250;2023-08-12T08:33:26;21.30;99.90
7290;DHT22;63176;52.678;13.250;2023-08-12T08:35:53;21.30;99.90
7290;DHT22;63176;52.678;13.250;2023-08-12T08:38:19;21.30;99.90
7290;DHT22;63176;52.678;13.250;2023-08-12T08:40:45;21.30;99.90
7290;DHT22;63176;52.678;13.250;2023-08-12T08:43:14;21.30;99.90
7290;DHT22;63176;52.678;13.250;2023-08-12T08:45:41;21.30;99.90
7290;DHT22;63176;52.678;13.250;2023-08-12T08:48:10;21.30;99.90
7290;DHT22;63176;52.678;13.250;2023-08-12T08:50:37;21.30;99.90
7290;DHT22;63176;52.678;13.250;2023-08-12T08:53:05;21.30;99.90
7290;DHT22;63176;52.678;13.250;2023-08-12T08:55:32;21.30;99.90
7290;DHT22;63176;52.678;13.250;2023-08-12T08:57:58;21.40;99.90
7290;DHT22;63176;52.678;13.250;2023-08-12T09:00:25;21.40;99.90
7290;DHT22;63176;52.678;13.250;2023-08-12T09:02:51;21.40;99.90
7290;DHT22;63176;52.678;13.250;2023-08-12T09:05:18;21.40;99.90
7290;DHT22;63176;52.678;13.250;2023-08-12T09:07:46;21.40;99.90
7290;DHT22;63176;52.678;13.250;2023-08-12T09:10:13;21.40;99.90
7290;DHT22;63176;52.678;13.250;2023-08-12T09:12:39;21.50;99.90
7290;DHT22;63176;52.678;13.250;2023-08-12T09:15:06;21.50;99.90
7290;DHT22;63176;52.678;13.250;2023-08-12T09:17:32;21.60;99.90
7290;DHT22;63176;52.678;13.250;2023-08-12T09:19:59;21.70;99.90
7290;DHT22;63176;52.678;13.250;2023-08-12T09:22:25;21.80;99.90
7290;DHT22;63176;52.678;13.250;2023-08-12T09:24:57;21.80;99.90
7290;DHT22;63176;52.678;13.250;2023-08-12T09:27:24;21.90;99.90
7290;DHT22;63176;52.678;13.250;2023-08-12T09:29:50;22.00;99.90
7290;DHT22;63176;52.678;13.250;2023-08-12T09:32:19;22.10;99.90
7290;DHT22;63176;52.678;13.250;2023-08-12T09:34:52;22.10;99.90
7290;DHT22;63176;52.678;13.250;2023-08-12T09:37:19;22.10;99.90
7290;DHT22;63176;52.678;13.250;2023-08-12T09:39:46;22.10;99.90
7290;DHT22;63176;52.678;13.250;2023-08-12T09:42:12;22.10;99.90
7290;DHT22;63176;52.678;13.250;2023-08-12T09:44:39;22.20;99.90
7290;DHT22;63176;52.678;13.250;2023-08-12T09:47:06;22.20;99.90
7290;DHT22;63176;52.678;13.250;2023-08-12T09:49:34;22.30;99.90
7290;DHT22;63176;52.678;13.250;2023-08-12T09:52:04;22.30;99.90
7290;DHT22;63176;52.678;13.250;2023-08-12T09:54:36;22.40;99.90
7290;DHT22;63176;52.678;13.250;2023-08-12T09:57:04;22.50;99.90
7290;DHT22;63176;52.678;13.250;2023-08-12T09:59:33;22.50;99.90
7290;DHT22;63176;52.678;13.250;2023-08-12T10:02:03;22.50;99.90
7290;DHT22;63176;52.678;13.250;2023-08-12T10:04:39;22.50;99.90
7290;DHT22;63176;52.678;13.250;2023-08-12T10:07:07;22.50;99.90
7290;DHT22;63176;52.678;13.250;2023-08-12T10:09:33;22.40;99.90
7290;DHT22;63176;52.678;13.250;2023-08-12T10:11:59;22.40;99.90
7290;DHT22;63176;52.678;13.250;2023-08-12T10:14:26;22.40;99.90
7290;DHT22;63176;52.678;13.250;2023-08-12T10:16:52;22.40;99.90
7290;DHT22;63176;52.678;13.250;2023-08-12T10:19:20;22.40;99.90
7290;DHT22;63176;52.678;13.250;2023-08-12T10:21:48;22.40;99.90
7290;DHT22;63176;52.678;13.250;2023-08-12T10:24:16;22.30;99.90
7290;DHT22;63176;52.678;13.250;2023-08-12T10:26:42;22.30;99.90
7290;DHT22;63176;52.678;13.250;2023-08-12T10:29:09;22.40;99.90
7290;DHT22;63176;52.678;13.250;2023-08-12T10:31:34;22.40;99.90
7290;DHT22;63176;52.678;13.250;2023-08-12T10:34:01;22.50;99.90
7290;DHT22;63176;52.678;13.250;2023-08-12T10:36:27;22.50;99.90
7290;DHT22;63176;52.678;13.250;2023-08-12T10:38:53;22.70;99.90
7290;DHT22;63176;52.678;13.250;2023-08-12T10:41:23;22.80;99.90
7290;DHT22;63176;52.678;13.250;2023-08-12T10:43:59;22.90;99.90
7290;DHT22;63176;52.678;13.250;2023-08-12T10:46:35;22.90;99.90
7290;DHT22;63176;52.678;13.250;2023-08-12T10:49:09;23.00;99.90
7290;DHT22;63176;52.678;13.250;2023-08-12T10:51:51;23.00;99.90
7290;DHT22;63176;52.678;13.250;2023-08-12T11:02:31;22.90;99.90
7290;DHT22;63176;52.678;13.250;2023-08-12T11:05:06;23.00;99.90
7290;DHT22;63176;52.678;13.250;2023-08-12T11:07:43;23.00;99.90
7290;DHT22;63176;52.678;13.250;2023-08-12T11:10:17;23.10;99.90
7290;DHT22;63176;52.678;13.250;2023-08-12T11:15:29;23.20;99.90
7290;DHT22;63176;52.678;13.250;2023-08-12T11:17:55;23.30;99.90
7290;DHT22;63176;52.678;13.250;2023-08-12T11:20:21;23.40;99.90
7290;DHT22;63176;52.678;13.250;2023-08-12T11:22:47;23.40;99.90
7290;DHT22;63176;52.678;13.250;2023-08-12T11:25:14;23.40;99.90
7290;DHT22;63176;52.678;13.250;2023-08-12T11:27:45;23.50;99.90
7290;DHT22;63176;52.678;13.250;2023-08-12T11:30:12;23.50;99.90
7290;DHT22;63176;52.678;13.250;2023-08-12T11:32:41;23.50;99.90
7290;DHT22;63176;52.678;13.250;2023-08-12T11:35:08;23.60;99.90
7290;DHT22;63176;52.678;13.250;2023-08-12T11:37:46;23.60;99.90
7290;DHT22;63176;52.678;13.250;2023-08-12T11:40:14;23.60;99.90
7290;DHT22;63176;52.678;13.250;2023-08-12T11:42:48;23.50;99.90
7290;DHT22;63176;52.678;13.250;2023-08-12T11:45:16;23.50;99.90
7290;DHT22;63176;52.678;13.250;2023-08-12T11:47:42;23.40;99.90
7290;DHT22;63176;52.678;13.250;2023-08-12T11:50:11;23.40;99.90
7290;DHT22;63176;52.678;13.250;2023-08-12T11:52:37;23.30;99.90
7290;DHT22;63176;52.678;13.250;2023-08-12T11:55:04;23.30;99.90
7290;DHT22;63176;52.678;13.250;2023-08-12T11:57:30;23.30;99.90
7290;DHT22;63176;52.678;13.250;2023-08-12T12:00:00;23.20;99.90
7290;DHT22;63176;52.678;13.250;2023-08-12T12:02:28;23.20;99.90
7290;DHT22;63176;52.678;13.250;2023-08-12T12:04:53;23.10;99.90
7290;DHT22;63176;52.678;13.250;2023-08-12T12:07:24;23.10;99.90
7290;DHT22;63176;52.678;13.250;2023-08-12T12:09:52;23.10;99.90
7290;DHT22;63176;52.678;13.250;2023-08-12T12:12:21;23.00;99.90
7290;DHT22;63176;52.678;13.250;2023-08-12T12:14:47;23.00;99.90
7290;DHT22;63176;52.678;13.250;2023-08-12T12:17:15;23.00;99.90
7290;DHT22;63176;52.678;13.250;2023-08-12T12:19:40;22.90;99.90
7290;DHT22;63176;52.678;13.250;2023-08-12T12:22:07;22.90;99.90
7290;DHT22;63176;52.678;13.250;2023-08-12T12:24:44;22.80;99.90
7290;DHT22;63176;52.678;13.250;2023-08-12T12:27:11;22.80;99.90
7290;DHT22;63176;52.678;13.250;2023-08-12T12:29:36;22.70;99.90
7290;DHT22;63176;52.678;13.250;2023-08-12T12:32:02;22.70;99.90
7290;DHT22;63176;52.678;13.250;2023-08-12T12:34:28;22.60;99.90
7290;DHT22;63176;52.678;13.250;2023-08-12T12:36:53;22.50;99.90
7290;DHT22;63176;52.678;13.250;2023-08-12T12:39:19;22.50;99.90
7290;DHT22;63176;52.678;13.250;2023-08-12T12:41:45;22.40;99.90
7290;DHT22;63176;52.678;13.250;2023-08-12T12:44:10;22.40;99.90
7290;DHT22;63176;52.678;13.250;2023-08-12T12:46:36;22.30;99.90
7290;DHT22;63176;52.678;13.250;2023-08-12T12:49:02;22.20;99.90
7290;DHT22;63176;52.678;13.250;2023-08-12T12:51:28;22.20;99.90
7290;DHT22;63176;52.678;13.250;2023-08-12T12:53:53;22.20;99.90
7290;DHT22;63176;52.678;13.250;2023-08-12T12:56:19;22.20;99.90
7290;DHT22;63176;52.678;13.250;2023-08-12T12:58:45;22.30;99.90
7290;DHT22;63176;52.678;13.250;2023-08-12T13:01:10;22.30;99.90
7290;DHT22;63176;52.678;13.250;2023-08-12T13:03:36;22.30;99.90
7290;DHT22;63176;52.678;13.250;2023-08-12T13:06:02;22.40;99.90
7290;DHT22;63176;52.678;13.250;2023-08-12T13:08:29;22.50;99.90
7290;DHT22;63176;52.678;13.250;2023-08-12T13:10:55;22.40;99.90
7290;DHT22;63176;52.678;13.250;2023-08-12T13:13:21;22.50;99.90
7290;DHT22;63176;52.678;13.250;2023-08-12T13:15:46;22.50;99.90
7290;DHT22;63176;52.678;13.250;2023-08-12T13:18:13;22.60;99.90
7290;DHT22;63176;52.678;13.250;2023-08-12T13:20:38;22.70;99.90
7290;DHT22;63176;52.678;13.250;2023-08-12T13:23:04;22.90;99.90
7290;DHT22;63176;52.678;13.250;2023-08-12T13:25:32;23.10;99.90
7290;DHT22;63176;52.678;13.250;2023-08-12T13:28:03;23.40;99.90
7290;DHT22;63176;52.678;13.250;2023-08-12T13:30:29;23.60;99.90
7290;DHT22;63176;52.678;13.250;2023-08-12T13:32:55;23.60;99.90
7290;DHT22;63176;52.678;13.250;2023-08-12T13:35:22;23.60;99.90
7290;DHT22;63176;52.678;13.250;2023-08-12T13:37:49;23.60;99.90
7290;DHT22;63176;52.678;13.250;2023-08-12T13:40:15;23.60;99.90
7290;DHT22;63176;52.678;13.250;2023-08-12T13:42:44;23.50;99.90
7290;DHT22;63176;52.678;13.250;2023-08-12T13:45:12;23.50;99.90
7290;DHT22;63176;52.678;13.250;2023-08-12T13:47:38;23.40;99.90
7290;DHT22;63176;52.678;13.250;2023-08-12T13:50:04;23.40;99.90
7290;DHT22;63176;52.678;13.250;2023-08-12T13:52:30;23.40;99.90
7290;DHT22;63176;52.678;13.250;2023-08-12T13:54:56;23.60;99.90
7290;DHT22;63176;52.678;13.250;2023-08-12T13:57:22;23.90;99.90
7290;DHT22;63176;52.678;13.250;2023-08-12T13:59:47;24.30;99.90
7290;DHT22;63176;52.678;13.250;2023-08-12T14:02:14;24.60;99.90
7290;DHT22;63176;52.678;13.250;2023-08-12T14:04:40;24.80;99.90
7290;DHT22;63176;52.678;13.250;2023-08-12T14:07:05;25.20;99.90
7290;DHT22;63176;52.678;13.250;2023-08-12T14:09:31;25.90;99.90
7290;DHT22;63176;52.678;13.250;2023-08-12T14:11:57;26.20;99.90
7290;DHT22;63176;52.678;13.250;2023-08-12T14:14:24;26.20;99.90
7290;DHT22;63176;52.678;13.250;2023-08-12T14:16:53;26.10;99.90
7290;DHT22;63176;52.678;13.250;2023-08-12T14:19:19;26.30;99.90
7290;DHT22;63176;52.678;13.250;2023-08-12T14:21:45;26.40;99.90
7290;DHT22;63176;52.678;13.250;2023-08-12T14:24:10;26.60;99.90
7290;DHT22;63176;52.678;13.250;2023-08-12T14:26:36;26.60;99.90
7290;DHT22;63176;52.678;13.250;2023-08-12T14:29:02;26.90;99.90
7290;DHT22;63176;52.678;13.250;2023-08-12T14:31:28;27.30;99.90
7290;DHT22;63176;52.678;13.250;2023-08-12T14:33:54;27.50;99.90
7290;DHT22;63176;52.678;13.250;2023-08-12T14:36:19;27.60;99.90
7290;DHT22;63176;52.678;13.250;2023-08-12T14:38:45;27.60;99.90
7290;DHT22;63176;52.678;13.250;2023-08-12T14:41:11;27.40;99.90
7290;DHT22;63176;52.678;13.250;2023-08-12T14:43:36;27.20;99.90
7290;DHT22;63176;52.678;13.250;2023-08-12T14:46:02;26.90;99.90
7290;DHT22;63176;52.678;13.250;2023-08-12T14:48:28;26.60;99.90
7290;DHT22;63176;52.678;13.250;2023-08-12T14:50:55;26.40;99.90
7290;DHT22;63176;52.678;13.250;2023-08-12T14:53:21;26.30;99.90
7290;DHT22;63176;52.678;13.250;2023-08-12T14:55:46;26.20;99.90
7290;DHT22;63176;52.678;13.250;2023-08-12T14:58:12;26.10;99.90
7290;DHT22;63176;52.678;13.250;2023-08-12T15:00:38;26.00;99.90
7290;DHT22;63176;52.678;13.250;2023-08-12T15:03:04;26.00;99.90
7290;DHT22;63176;52.678;13.250;2023-08-12T15:05:29;26.00;99.90
7290;DHT22;63176;52.678;13.250;2023-08-12T15:07:55;26.10;99.90
7290;DHT22;63176;52.678;13.250;2023-08-12T15:10:22;26.20;99.90
7290;DHT22;63176;52.678;13.250;2023-08-12T15:12:48;26.20;99.90
7290;DHT22;63176;52.678;13.250;2023-08-12T15:15:14;26.20;99.90
7290;DHT22;63176;52.678;13.250;2023-08-12T15:17:39;26.20;99.90
7290;DHT22;63176;52.678;13.250;2023-08-12T15:20:06;26.10;99.90
7290;DHT22;63176;52.678;13.250;2023-08-12T15:22:32;26.10;99.90
7290;DHT22;63176;52.678;13.250;2023-08-12T15:24:57;25.90;99.90
7290;DHT22;63176;52.678;13.250;2023-08-12T15:27:24;25.70;99.90
7290;DHT22;63176;52.678;13.250;2023-08-12T15:29:49;25.60;99.90
7290;DHT22;63176;52.678;13.250;2023-08-12T15:32:15;25.50;99.90
7290;DHT22;63176;52.678;13.250;2023-08-12T15:34:41;25.50;99.90
7290;DHT22;63176;52.678;13.250;2023-08-12T15:37:06;25.40;99.90
7290;DHT22;63176;52.678;13.250;2023-08-12T15:39:32;25.50;99.90
7290;DHT22;63176;52.678;13.250;2023-08-12T15:41:59;25.50;99.90
7290;DHT22;63176;52.678;13.250;2023-08-12T15:44:24;25.60;99.90